Aeroporto :
LOGIN :

Iscrizione | Disclaimer

   EN    FR    IT 

 










Sommario :    VFR   VFR Marginale   IFR   IFR Intensivo   IFR Molto Intensivo
Visibilità : 
Base nubi : 
>= 8 km
>= 3000ft
5 / 8 km
1000 / 3000 ft
1500m / 5 km
500 / 1000 ft
800 / 1500m
200 / 500 ft
< 800m
< 200 ft
Simboli :   Temporali  Nebbia  Neve Forte  Precipitazioni Forti  Vento > 20 kt
SIGMETs :   Varie  Temporali  Ghiacco  Turbolenza  Onda orograficha  Ceneri Vulcaniche






- Altitudine del aeroporto : 297 ft
- Codice IATA : UIP


LFRQ - Quimper Pluguffan

ULTIMO METAR :
  • 150000Z AUTO 01004KT CAVOK 03/03 Q1000

METARs OBSOLETI :
  • 142330Z AUTO 01004KT 9999 BKN035 03/03 Q1000
  • 142300Z AUTO 02003KT 9999 BKN009 BKN037 OVC043 04/03 Q0999
  • 142230Z AUTO 03005KT 9999 FEW011 03/03 Q0999
  • 142200Z AUTO 02004KT 350V060 9999 FEW035/// ///CB 04/03 Q0998 TEMPO 3000 SHRAGS
  • 142130Z AUTO 02005KT 340V060 9999 FEW037/// SCT054/// ///TCU 04/03 Q0998 TEMPO 3000 SHRAGS SCT016CB BKN025

TAF TAF LFRQ
Valido dal 14 a 18 ore il 15 a 18 ore UTC


141700Z 1418/1518 29006KT 9999 FEW037 SCT048 OVC064
TEMPO 1418/1512 3000 SHRAGS SCT016CB BKN025
BECMG 1503/1506 36010KT
PROB30
TEMPO 1503/1509 2000 RA BKN008 SCT015CB
BECMG 1512/1515 01011KT



MetMap, La meteo Aeronautica in un colpo d'occhio ! - Copyright ORBIFLY Dicembre 2007 - Disclaimer

ORBIFLY MET'MAP TEAM :

Programmazione e sviluppo : Alexandra Zaïnal
Concezione e sviluppo : Baudouin d'Aumeries
Co-Programmazione e sviluppo : Marc-Olivier Méhu
Supporto tecnico e logistico : Manuel Goepfert
Aiuto per la traduzione : Arnaldo La Scala

Contatto : metmap@orbifly.com




FONTI E CREDITI :

   NOAA